ストックホルム/アーランダ の空港の天気 - METARとTAF

ストックホルム・アーランダ空港 ( ESSA / ARN ) - スウェーデン ストックホルム
飛行場実況気象(Metar)
観測時間10/21 17:50 CEST (10/21 15:50 UTC)
風向・風速南南西 3m/s
視程5000m
天気現象もや
全天を覆う雲 雲底高度 120m
気温9℃
湿度100%
気圧1003hPa
METARESSA 211550Z 20006KT 5000 BR OVC004 09/09 Q1003 TEMPO 4000 BR
過去の天気等 Google飛行場航空写真 Wunderground天気予報

過去48時間のMETAR

飛行場予報(TAF)
発表時間: 10/21 13:30 CEST (10/21 11:30 UTC)
予報対象時間: 21日14時 CEST ~ 22日14時 CEST
風向・風速南南西 3m/s
視程9000m
全天の4割程度の雲 雲底高度 270m
全天の8割程度の雲 雲底高度 610m
21日14時 CEST ~ 21日15時 CEST に徐々に
全天の8割程度の雲 雲底高度 270m
21日14時 CEST ~ 22日1時 CEST に一時的に
視程3000m
天気現象もや
全天の8割程度の雲 雲底高度 120m
22日1時 CEST ~ 22日14時 CEST に一時的に
視程3000m
天気現象雨 もや
全天の8割程度の雲 雲底高度 120m
TAF ESSA 211130Z 2112/2212 20006KT 9000 SCT009 BKN020
BECMG 2112/2113 BKN009
TEMPO 2112/2123 3000 BR BKN004
TEMPO 2123/2212 3000 RA BR BKN004